createdAt,value
2022-09-28T00:01:58.271Z,0.52
2022-09-28T00:04:24.669Z,0.70
2022-09-28T00:06:50.996Z,0.30
2022-09-28T00:09:17.576Z,0.40
2022-09-28T00:11:46.069Z,0.68
2022-09-28T00:14:12.641Z,0.30
2022-09-28T00:16:41.053Z,0.55
2022-09-28T00:19:08.276Z,0.40
2022-09-28T00:21:36.229Z,1.15
2022-09-28T00:24:12.870Z,0.28
2022-09-28T00:26:41.055Z,0.50
2022-09-28T00:29:08.550Z,0.50
2022-09-28T00:31:35.373Z,0.40
2022-09-28T00:34:02.194Z,0.60
2022-09-28T00:36:29.483Z,0.50
2022-09-28T00:38:56.451Z,0.50
2022-09-28T00:41:23.771Z,0.60
2022-09-28T00:43:50.219Z,0.75
2022-09-28T00:46:16.516Z,0.32
2022-09-28T00:48:47.195Z,0.30
2022-09-28T00:51:13.721Z,0.50
2022-09-28T00:53:43.352Z,0.70
2022-09-28T00:56:17.360Z,0.40
2022-09-28T00:58:45.404Z,0.35
2022-09-28T01:01:12.596Z,0.30
2022-09-28T01:03:45.108Z,0.30
2022-09-28T01:06:13.839Z,0.38
2022-09-28T01:08:40.476Z,0.30
2022-09-28T01:11:07.046Z,0.40
2022-09-28T01:13:33.489Z,0.32
2022-09-28T01:16:15.272Z,0.40
2022-09-28T01:19:00.576Z,0.25
2022-09-28T01:21:27.216Z,0.30
2022-09-28T01:24:10.320Z,0.43
2022-09-28T01:26:52.650Z,0.20
2022-09-28T01:29:22.148Z,0.30
2022-09-28T01:31:53.857Z,0.30
2022-09-28T01:34:30.925Z,0.32
2022-09-28T01:36:58.989Z,0.20
2022-09-28T01:39:34.471Z,0.40
2022-09-28T01:42:03.057Z,0.43
2022-09-28T01:44:31.298Z,0.30
2022-09-28T01:47:03.573Z,0.20
2022-09-28T01:49:34.680Z,0.30
2022-09-28T01:52:04.804Z,0.25
2022-09-28T01:54:31.177Z,0.20
2022-09-28T01:57:12.642Z,0.30
2022-09-28T01:59:42.952Z,0.20
2022-09-28T02:02:22.679Z,0.20
2022-09-28T02:04:52.318Z,0.25
2022-09-28T02:07:21.648Z,0.17
2022-09-28T02:09:51.920Z,0.20
2022-09-28T02:12:22.913Z,0.77
2022-09-28T02:14:49.779Z,0.30
2022-09-28T02:17:16.246Z,0.10
2022-09-28T02:19:43.033Z,0.10
2022-09-28T02:22:09.287Z,0.10
2022-09-28T02:24:38.259Z,0.17
2022-09-28T02:27:10.161Z,0.20
2022-09-28T02:29:36.486Z,0.17
2022-09-28T02:32:02.772Z,0.10
2022-09-28T02:34:29.113Z,0.08
2022-09-28T02:36:55.599Z,0.15
2022-09-28T02:39:22.391Z,0.17
2022-09-28T02:41:55.079Z,0.20
2022-09-28T02:44:36.878Z,0.10
2022-09-28T02:47:10.224Z,0.08
2022-09-28T02:49:59.618Z,0.30
2022-09-28T02:52:33.981Z,0.05
2022-09-28T02:55:00.910Z,0.55
2022-09-28T02:57:45.343Z,0.20
2022-09-28T03:00:15.013Z,0.05
2022-09-28T03:02:44.140Z,0.10
2022-09-28T03:05:13.528Z,0.10
2022-09-28T03:07:43.172Z,0.40
2022-09-28T03:10:19.519Z,0.10
2022-09-28T03:12:48.154Z,0.15
2022-09-28T03:15:20.367Z,0.28
2022-09-28T03:17:46.704Z,0.10
2022-09-28T03:20:13.067Z,0.10
2022-09-28T03:22:39.368Z,0.10
2022-09-28T03:25:06.215Z,0.13
2022-09-28T03:27:32.519Z,0.30
2022-09-28T03:29:59.005Z,0.20
2022-09-28T03:32:25.331Z,0.45
2022-09-28T03:34:51.857Z,0.32
2022-09-28T03:37:18.149Z,0.10
2022-09-28T03:39:44.499Z,0.13
2022-09-28T03:42:10.780Z,0.40
2022-09-28T03:44:37.065Z,0.30
2022-09-28T03:47:03.428Z,0.52
2022-09-28T03:49:29.729Z,0.30
2022-09-28T03:51:56.075Z,0.30
2022-09-28T03:54:22.349Z,0.20
2022-09-28T03:56:48.712Z,0.77
2022-09-28T03:59:15.083Z,0.10
2022-09-28T04:01:41.687Z,0.30
2022-09-28T04:04:08.085Z,0.30
2022-09-28T04:06:34.363Z,0.15
2022-09-28T04:09:00.691Z,0.10
2022-09-28T04:11:27.060Z,0.10
2022-09-28T04:13:54.908Z,0.10
2022-09-28T04:16:21.365Z,0.17
2022-09-28T04:18:48.424Z,0.20
2022-09-28T04:21:16.265Z,0.13
2022-09-28T04:23:42.917Z,0.25
2022-09-28T04:26:16.646Z,0.05
2022-09-28T04:29:06.298Z,0.13
2022-09-28T04:31:40.895Z,0.10
2022-09-28T04:34:07.508Z,0.20
2022-09-28T04:36:33.805Z,0.20
2022-09-28T04:39:00.233Z,0.10
2022-09-28T04:41:26.640Z,0.00
2022-09-28T04:43:52.957Z,0.20
2022-09-28T04:46:19.435Z,0.20
2022-09-28T04:48:46.028Z,0.10
2022-09-28T04:51:12.364Z,0.40
2022-09-28T04:53:38.719Z,0.03
2022-09-28T04:56:10.309Z,0.40
2022-09-28T04:58:36.690Z,0.10
2022-09-28T05:01:05.221Z,0.20
2022-09-28T05:03:31.584Z,0.10
2022-09-28T05:05:57.877Z,0.20
2022-09-28T05:08:24.648Z,0.10
2022-09-28T05:10:56.728Z,0.30
2022-09-28T05:13:23.022Z,0.10
2022-09-28T05:15:56.225Z,0.20
2022-09-28T05:18:24.936Z,0.25
2022-09-28T05:20:51.352Z,0.45
2022-09-28T05:23:17.701Z,0.20
2022-09-28T05:25:45.362Z,0.20
2022-09-28T05:28:11.689Z,0.03
2022-09-28T05:30:38.229Z,0.10
2022-09-28T05:33:04.540Z,0.20
2022-09-28T05:35:31.500Z,0.28
2022-09-28T05:38:02.532Z,0.10
2022-09-28T05:40:29.035Z,0.20
2022-09-28T05:42:58.398Z,0.17
2022-09-28T05:45:24.705Z,0.20
2022-09-28T05:47:50.972Z,0.30
2022-09-28T05:50:17.347Z,0.10
2022-09-28T05:52:44.425Z,0.30
2022-09-28T05:55:11.181Z,0.30
2022-09-28T05:57:37.478Z,0.20
2022-09-28T06:00:05.629Z,0.17
2022-09-28T06:02:32.015Z,0.47
2022-09-28T06:04:58.455Z,0.40
2022-09-28T06:07:24.740Z,0.30
2022-09-28T06:09:51.056Z,0.30
2022-09-28T06:12:17.412Z,0.40
2022-09-28T06:14:44.705Z,0.13
2022-09-28T06:17:11.007Z,0.20
2022-09-28T06:19:37.329Z,0.20
2022-09-28T06:22:03.652Z,0.30
2022-09-28T06:24:30.127Z,0.85
2022-09-28T06:26:56.548Z,0.30
2022-09-28T06:29:23.961Z,0.38
2022-09-28T06:31:51.347Z,0.38
2022-09-28T06:34:18.959Z,0.30
2022-09-28T06:36:45.360Z,0.30
2022-09-28T06:39:11.664Z,0.20
2022-09-28T06:41:37.961Z,0.20
2022-09-28T06:44:04.272Z,0.25
2022-09-28T06:46:31.436Z,0.52
2022-09-28T06:48:57.862Z,0.30
2022-09-28T06:51:25.017Z,0.25
2022-09-28T06:53:53.840Z,0.30
2022-09-28T06:56:21.012Z,0.43
2022-09-28T06:58:47.706Z,0.77
2022-09-28T07:01:14.090Z,0.50
2022-09-28T07:03:40.653Z,0.40
2022-09-28T07:06:10.222Z,0.40
2022-09-28T07:08:36.633Z,0.30
2022-09-28T07:11:05.236Z,0.50
2022-09-28T07:13:50.758Z,0.40
2022-09-28T07:16:19.624Z,0.68
2022-09-28T07:18:47.986Z,0.73
2022-09-28T07:21:25.242Z,0.38
2022-09-28T07:23:54.478Z,0.50
2022-09-28T07:26:24.061Z,0.43
2022-09-28T07:28:51.111Z,0.60
2022-09-28T07:31:17.476Z,1.33
2022-09-28T07:33:43.862Z,1.02
2022-09-28T07:36:10.719Z,0.57
2022-09-28T07:38:38.240Z,0.57
2022-09-28T07:41:14.277Z,0.70
2022-09-28T07:43:41.177Z,0.52
2022-09-28T07:46:14.063Z,0.50
2022-09-28T07:48:41.322Z,0.63
2022-09-28T07:51:08.199Z,1.70
2022-09-28T07:53:34.542Z,0.65
2022-09-28T07:56:04.352Z,0.88
2022-09-28T07:58:32.799Z,0.90
2022-09-28T08:01:01.084Z,0.80
2022-09-28T08:03:27.505Z,0.60
2022-09-28T08:06:00.183Z,0.43
2022-09-28T08:08:27.020Z,1.10
2022-09-28T08:10:53.420Z,0.57
2022-09-28T08:13:23.447Z,0.40
2022-09-28T08:15:53.380Z,0.70
2022-09-28T08:18:20.080Z,0.80
2022-09-28T08:21:12.468Z,1.17
2022-09-28T08:23:39.125Z,1.10
2022-09-28T08:26:05.578Z,1.23
2022-09-28T08:28:32.139Z,0.55
2022-09-28T08:31:06.858Z,1.05
2022-09-28T08:33:33.566Z,0.45
2022-09-28T08:36:01.002Z,0.43
2022-09-28T08:38:28.936Z,0.63
2022-09-28T08:40:55.582Z,0.63
2022-09-28T08:43:35.939Z,0.30
2022-09-28T08:46:02.352Z,0.52
2022-09-28T08:49:01.145Z,0.40
2022-09-28T08:51:43.916Z,0.20
2022-09-28T08:54:16.431Z,0.32
2022-09-28T08:56:44.766Z,0.55
2022-09-28T08:59:19.068Z,0.70
2022-09-28T09:01:50.361Z,0.60
2022-09-28T09:04:16.771Z,0.68
2022-09-28T09:07:01.909Z,0.50
2022-09-28T09:09:34.092Z,0.63
2022-09-28T09:12:00.736Z,0.55
2022-09-28T09:14:36.393Z,0.40
2022-09-28T09:17:06.122Z,0.30
2022-09-28T09:19:37.795Z,0.50
2022-09-28T09:22:17.623Z,0.40
2022-09-28T09:24:46.745Z,0.30
2022-09-28T09:27:28.664Z,0.52
2022-09-28T09:30:29.614Z,0.60
2022-09-28T09:33:16.100Z,0.43
2022-09-28T09:36:05.366Z,0.38
2022-09-28T09:38:45.767Z,0.30
2022-09-28T09:41:16.738Z,0.30
2022-09-28T09:44:01.959Z,0.30
2022-09-28T09:46:33.879Z,0.50
2022-09-28T09:49:29.344Z,0.50
2022-09-28T09:51:58.394Z,0.30
2022-09-28T09:54:39.302Z,0.17
2022-09-28T09:57:15.125Z,0.32
2022-09-28T10:04:40.835Z,0.22
2022-09-28T10:07:09.608Z,0.20
2022-09-28T10:09:44.621Z,0.20
2022-09-28T10:12:15.148Z,0.10
2022-09-28T10:14:41.436Z,0.28
2022-09-28T10:17:10.600Z,0.20
2022-09-28T10:19:36.956Z,0.13
2022-09-28T10:22:04.765Z,0.15
2022-09-28T10:24:32.636Z,0.10
2022-09-28T10:27:03.131Z,0.40
2022-09-28T10:29:34.739Z,0.20
2022-09-28T10:32:01.499Z,0.30
2022-09-28T10:34:28.748Z,0.30
2022-09-28T10:36:58.405Z,0.20
2022-09-28T10:39:30.325Z,0.20
2022-09-28T10:41:58.638Z,0.25
2022-09-28T10:44:25.651Z,0.20
2022-09-28T10:47:06.181Z,0.20
2022-09-28T10:49:41.103Z,0.10
2022-09-28T10:52:30.987Z,0.20
2022-09-28T10:54:57.365Z,0.30
2022-09-28T10:57:27.891Z,0.40
2022-09-28T10:59:54.293Z,0.17
2022-09-28T11:02:26.082Z,0.20
2022-09-28T11:04:54.084Z,0.05
2022-09-28T11:07:25.787Z,0.25
2022-09-28T11:09:53.182Z,0.30
2022-09-28T11:12:20.634Z,0.28
2022-09-28T11:14:52.623Z,0.40
2022-09-28T11:17:18.976Z,0.28
2022-09-28T11:19:45.686Z,0.30
2022-09-28T11:22:24.507Z,0.20
2022-09-28T11:24:50.866Z,0.30
2022-09-28T11:27:25.404Z,0.30
2022-09-28T11:29:56.997Z,0.22
2022-09-28T11:32:25.390Z,0.30
2022-09-28T11:34:59.463Z,0.38
2022-09-28T11:37:34.012Z,0.50
2022-09-28T11:40:15.754Z,0.30
2022-09-28T11:42:42.829Z,0.30
2022-09-28T11:45:44.605Z,0.30
2022-09-28T11:48:37.023Z,0.30
2022-09-28T11:51:08.413Z,0.30
2022-09-28T11:53:43.796Z,0.20
2022-09-28T11:56:27.263Z,0.38
2022-09-28T11:58:55.657Z,0.08
2022-09-28T12:01:25.981Z,0.15
2022-09-28T12:03:55.569Z,0.25
2022-09-28T12:06:28.592Z,0.20
2022-09-28T12:08:56.820Z,0.10
2022-09-28T12:11:35.893Z,0.10
2022-09-28T12:14:04.407Z,0.20
2022-09-28T12:19:36.405Z,0.10
2022-09-28T12:22:05.213Z,0.10
2022-09-28T12:24:33.834Z,0.22
2022-09-28T12:27:18.801Z,0.00
2022-09-28T12:29:57.208Z,0.10
2022-09-28T12:32:29.564Z,0.10
2022-09-28T12:34:56.421Z,0.10
2022-09-28T12:37:46.412Z,0.10
2022-09-28T12:40:12.719Z,0.20
2022-09-28T12:42:42.334Z,0.10
2022-09-28T12:45:24.761Z,0.40
2022-09-28T12:47:51.054Z,0.43
2022-09-28T12:50:39.289Z,0.28
2022-09-28T12:53:25.882Z,0.22
2022-09-28T12:55:56.402Z,0.30
2022-09-28T12:58:41.721Z,0.03
2022-09-28T13:01:14.009Z,0.20
2022-09-28T13:03:42.511Z,0.08
2022-09-28T13:06:27.367Z,0.13
2022-09-28T13:08:56.574Z,0.00
2022-09-28T13:11:41.548Z,0.20
2022-09-28T13:14:10.684Z,0.00
2022-09-28T13:16:36.986Z,0.15
2022-09-28T13:19:07.616Z,0.13
2022-09-28T13:21:40.018Z,0.10
2022-09-28T13:24:30.980Z,0.30
2022-09-28T13:26:56.929Z,0.10
2022-09-28T13:29:24.137Z,0.10
2022-09-28T13:31:58.132Z,0.45
2022-09-28T13:34:26.105Z,0.20
2022-09-28T13:37:09.944Z,0.50
2022-09-28T13:39:45.325Z,0.63
2022-09-28T13:42:30.355Z,0.20
2022-09-28T13:45:02.204Z,0.17
2022-09-28T13:47:37.690Z,0.40
2022-09-28T13:50:20.844Z,0.50
2022-09-28T13:52:50.768Z,0.40
2022-09-28T13:55:23.360Z,0.50
2022-09-28T13:57:55.863Z,0.30
2022-09-28T14:00:26.274Z,0.60
2022-09-28T14:03:14.876Z,0.22
2022-09-28T14:05:41.614Z,0.70
2022-09-28T14:08:23.285Z,0.60
2022-09-28T14:10:51.783Z,0.32
2022-09-28T14:13:36.720Z,0.25
2022-09-28T14:16:19.396Z,0.45
2022-09-28T14:18:48.964Z,0.32
2022-09-28T14:21:41.502Z,0.30
2022-09-28T14:24:19.785Z,0.45
2022-09-28T14:27:01.100Z,0.30
2022-09-28T14:29:29.062Z,0.15
2022-09-28T14:31:56.586Z,0.30
2022-09-28T14:34:29.968Z,0.20
2022-09-28T14:37:14.734Z,0.47
2022-09-28T14:40:02.791Z,0.20
2022-09-28T14:42:29.321Z,0.30
2022-09-28T14:45:05.389Z,0.30
2022-09-28T14:48:02.883Z,0.30
2022-09-28T14:50:29.432Z,0.40
2022-09-28T14:52:57.118Z,0.20
2022-09-28T14:55:29.012Z,0.28
2022-09-28T14:57:57.210Z,0.30
2022-09-28T15:00:25.946Z,0.28
2022-09-28T15:02:53.948Z,0.30
2022-09-28T15:05:24.154Z,0.43
2022-09-28T15:07:52.154Z,0.20
2022-09-28T15:10:27.443Z,0.30
2022-09-28T15:12:55.299Z,0.30
2022-09-28T15:15:30.893Z,0.20
2022-09-28T15:18:04.686Z,0.20
2022-09-28T15:20:34.199Z,0.10
2022-09-28T15:23:00.636Z,0.30
2022-09-28T15:25:31.735Z,0.30
2022-09-28T15:27:59.375Z,0.30
2022-09-28T15:30:36.546Z,0.22
2022-09-28T15:33:22.061Z,0.50
2022-09-28T15:36:02.822Z,0.35
2022-09-28T15:38:29.999Z,0.30
2022-09-28T15:40:56.599Z,0.50
2022-09-28T15:43:24.789Z,0.28
2022-09-28T15:45:58.483Z,0.20
2022-09-28T15:48:40.747Z,0.30
2022-09-28T15:51:10.811Z,0.32
2022-09-28T15:53:47.202Z,0.30
2022-09-28T15:56:13.611Z,0.22
2022-09-28T15:58:39.959Z,0.32
2022-09-28T16:01:21.786Z,0.30
2022-09-28T16:03:48.159Z,0.20
2022-09-28T16:06:14.447Z,0.30
2022-09-28T16:08:44.829Z,0.45
2022-09-28T16:11:17.280Z,0.77
2022-09-28T16:13:48.581Z,0.57
2022-09-28T16:16:16.690Z,0.38
2022-09-28T16:18:47.390Z,0.60
2022-09-28T16:21:32.457Z,0.43
2022-09-28T16:23:59.537Z,0.35
2022-09-28T16:26:37.276Z,0.40
2022-09-28T16:29:09.407Z,0.40
2022-09-28T16:31:36.808Z,0.55
2022-09-28T16:34:09.548Z,0.10
2022-09-28T16:36:45.525Z,0.50
2022-09-28T16:39:12.731Z,0.50
2022-09-28T16:41:40.018Z,0.30
2022-09-28T16:44:12.182Z,0.50
2022-09-28T16:46:39.038Z,0.43
2022-09-28T16:49:06.678Z,0.63
2022-09-28T16:51:33.673Z,0.50
2022-09-28T16:54:30.099Z,0.63
2022-09-28T16:56:56.408Z,0.32
2022-09-28T16:59:22.876Z,0.68
2022-09-28T17:01:49.394Z,1.30
2022-09-28T17:04:15.761Z,1.00
2022-09-28T17:06:43.462Z,0.90
2022-09-28T17:09:12.415Z,1.05
2022-09-28T17:11:39.328Z,0.63
2022-09-28T17:14:06.004Z,0.40
2022-09-28T17:16:57.674Z,0.50
2022-09-28T17:19:23.406Z,0.68
2022-09-28T17:21:50.942Z,0.70
2022-09-28T17:24:17.655Z,0.40
2022-09-28T17:26:44.884Z,0.60
2022-09-28T17:29:14.865Z,0.70
2022-09-28T17:31:42.582Z,0.55
2022-09-28T17:34:10.073Z,0.45
2022-09-28T17:36:36.912Z,0.75
2022-09-28T17:39:03.565Z,0.50
2022-09-28T17:41:29.881Z,0.60
2022-09-28T17:43:56.477Z,1.00
2022-09-28T17:46:26.120Z,1.83
2022-09-28T17:48:52.716Z,1.30
2022-09-28T17:51:19.165Z,1.52
2022-09-28T17:53:45.537Z,1.42
2022-09-28T17:56:12.310Z,1.15
2022-09-28T17:58:38.794Z,1.42
2022-09-28T18:01:05.244Z,1.30
2022-09-28T18:03:31.650Z,1.20
2022-09-28T18:06:01.161Z,1.15
2022-09-28T18:08:27.503Z,0.80
2022-09-28T18:10:54.641Z,0.65
2022-09-28T18:13:21.015Z,0.80
2022-09-28T18:15:49.964Z,1.20
2022-09-28T18:18:16.368Z,0.90
2022-09-28T18:20:42.723Z,0.80
2022-09-28T18:23:09.063Z,0.70
2022-09-28T18:25:38.880Z,0.90
2022-09-28T18:28:05.203Z,0.88
2022-09-28T18:30:31.548Z,0.80
2022-09-28T18:32:57.948Z,0.55
2022-09-28T18:35:24.399Z,0.70
2022-09-28T18:37:50.950Z,1.00
2022-09-28T18:40:17.571Z,1.20
2022-09-28T18:42:43.964Z,0.85
2022-09-28T18:45:11.235Z,0.80
2022-09-28T18:47:38.647Z,1.48
2022-09-28T18:50:05.123Z,1.20
2022-09-28T18:52:31.447Z,1.25
2022-09-28T18:54:57.839Z,1.20
2022-09-28T18:57:24.274Z,1.67
2022-09-28T18:59:50.578Z,1.25
2022-09-28T19:02:17.018Z,1.10
2022-09-28T19:04:43.537Z,1.13
2022-09-28T19:07:10.052Z,1.00
2022-09-28T19:09:36.398Z,1.48
2022-09-28T19:12:02.752Z,1.27
2022-09-28T19:14:29.067Z,1.95
2022-09-28T19:16:55.583Z,2.58
2022-09-28T19:19:21.985Z,1.30
2022-09-28T19:21:48.559Z,1.38
2022-09-28T19:24:15.573Z,1.40
2022-09-28T19:26:42.623Z,1.20
2022-09-28T19:29:10.382Z,2.03
2022-09-28T19:31:36.946Z,2.90
2022-09-28T19:34:03.485Z,3.45
2022-09-28T19:36:30.105Z,3.90
2022-09-28T19:38:57.269Z,2.95
2022-09-28T19:41:51.246Z,2.85
2022-09-28T19:44:24.376Z,2.55
2022-09-28T19:46:55.370Z,2.40
2022-09-28T19:49:22.602Z,2.53
2022-09-28T19:52:13.867Z,2.95
2022-09-28T19:54:57.376Z,2.58
2022-09-28T19:57:25.306Z,2.10
2022-09-28T19:59:53.723Z,2.15
2022-09-28T20:02:21.558Z,1.98
2022-09-28T20:04:48.151Z,2.03
2022-09-28T20:07:15.034Z,2.17
2022-09-28T20:09:42.047Z,1.90
2022-09-28T20:12:08.620Z,2.03
2022-09-28T20:14:39.671Z,2.00
2022-09-28T20:17:06.959Z,1.90
2022-09-28T20:19:33.544Z,1.60
2022-09-28T20:22:02.634Z,1.63
2022-09-28T20:24:29.318Z,1.52
2022-09-28T20:26:55.861Z,1.55
2022-09-28T20:29:23.027Z,2.30
2022-09-28T20:31:49.399Z,2.50
2022-09-28T20:34:15.786Z,3.25
2022-09-28T20:36:43.499Z,2.85
2022-09-28T20:39:10.034Z,1.45
2022-09-28T20:41:36.506Z,2.38
2022-09-28T20:44:05.975Z,2.70
2022-09-28T20:46:33.619Z,2.58
2022-09-28T20:49:00.211Z,2.35
2022-09-28T20:51:26.718Z,1.95
2022-09-28T20:53:54.412Z,2.45
2022-09-28T20:56:21.720Z,1.95
2022-09-28T20:58:50.253Z,1.90
2022-09-28T21:01:19.150Z,2.83
2022-09-28T21:03:49.544Z,2.17
2022-09-28T21:06:19.488Z,2.20
2022-09-28T21:08:46.321Z,2.08
2022-09-28T21:11:13.506Z,1.50
2022-09-28T21:13:43.269Z,1.30
2022-09-28T21:16:10.764Z,1.65
2022-09-28T21:18:37.711Z,1.70
2022-09-28T21:21:05.296Z,1.90
2022-09-28T21:23:31.741Z,2.08
2022-09-28T21:26:24.384Z,1.73
2022-09-28T21:28:54.399Z,1.52
2022-09-28T21:31:26.091Z,2.20
2022-09-28T21:33:54.730Z,1.90
2022-09-28T21:36:21.170Z,1.60
2022-09-28T21:38:47.497Z,1.45
2022-09-28T21:41:13.835Z,1.85
2022-09-28T21:43:40.136Z,1.35
2022-09-28T21:46:06.565Z,1.20
2022-09-28T21:48:33.016Z,1.50
2022-09-28T21:51:06.570Z,1.20
2022-09-28T21:53:33.959Z,1.48
2022-09-28T21:56:00.929Z,1.80
2022-09-28T21:58:28.727Z,1.65
2022-09-28T22:01:01.293Z,1.30
2022-09-28T22:03:28.340Z,1.83
2022-09-28T22:05:54.628Z,1.48
2022-09-28T22:08:21.329Z,1.40
2022-09-28T22:11:00.929Z,1.40
2022-09-28T22:13:31.081Z,1.55
2022-09-28T22:16:00.712Z,1.35
2022-09-28T22:18:28.176Z,0.98
2022-09-28T22:20:58.209Z,1.38
2022-09-28T22:23:24.601Z,0.85
2022-09-28T22:25:57.964Z,1.50
2022-09-28T22:28:24.368Z,1.60
2022-09-28T22:30:50.726Z,1.92
2022-09-28T22:33:17.147Z,1.55
2022-09-28T22:35:43.670Z,1.75
2022-09-28T22:38:09.969Z,1.38
2022-09-28T22:40:36.819Z,1.50
2022-09-28T22:43:03.143Z,1.65
2022-09-28T22:45:30.148Z,1.30
2022-09-28T22:47:56.426Z,1.55
2022-09-28T22:50:22.704Z,1.40
2022-09-28T22:52:49.103Z,1.58
2022-09-28T22:55:15.572Z,2.05
2022-09-28T22:57:41.868Z,2.03
2022-09-28T23:00:08.434Z,1.35
2022-09-28T23:02:34.818Z,1.38
2022-09-28T23:05:01.150Z,1.52
2022-09-28T23:07:27.529Z,1.20
2022-09-28T23:09:53.971Z,1.42
2022-09-28T23:12:20.273Z,1.55
2022-09-28T23:14:46.585Z,1.52
2022-09-28T23:17:12.956Z,1.65
2022-09-28T23:19:39.230Z,1.88
2022-09-28T23:22:05.568Z,1.92
2022-09-28T23:24:31.982Z,1.60
2022-09-28T23:26:58.269Z,1.70
2022-09-28T23:29:24.847Z,1.50
2022-09-28T23:31:51.137Z,1.60
2022-09-28T23:34:17.432Z,1.77
2022-09-28T23:36:43.733Z,2.10
2022-09-28T23:39:11.673Z,1.75
2022-09-28T23:41:37.950Z,1.40
2022-09-28T23:44:04.617Z,1.30
2022-09-28T23:46:30.950Z,1.52
2022-09-28T23:48:57.411Z,1.25
2022-09-28T23:51:23.783Z,1.50
2022-09-28T23:53:50.151Z,1.17
2022-09-28T23:56:16.502Z,1.40
2022-09-28T23:58:43.047Z,1.60
